Time;durP1;ratioP1;P1;durP2;ratioP2;P2;SDS_P1;SDS_P2;PMS_P1;PMS_P2;Temp;Humidity;BMP_temperature;BMP_pressure;BME280_temperature;BME280_humidity;BME280_pressure;Samples;Min_cycle;Max_cycle;Signal;HPM_P1;HPM_P2
2021/12/20 00:00:19;;;;;;;;;20.00;17.33;;;;;10.39;60.66;102450.53;6005205;23;45306;-79
2021/12/20 00:02:46;;;;;;;;;15.00;15.00;;;;;10.42;60.31;102450.47;6003694;23;45353;-79
2021/12/20 00:05:14;;;;;;;;;19.33;19.00;;;;;10.23;60.85;102426.78;6004318;23;45420;-79
2021/12/20 00:07:39;;;;;;;;;21.67;20.00;;;;;10.37;61.04;102447.00;6005765;23;45426;-79
2021/12/20 00:10:05;;;;;;;;;25.00;22.67;;;;;10.40;60.73;102447.84;6005489;23;45476;-79
2021/12/20 00:12:30;;;;;;;;;17.00;16.67;;;;;10.28;60.55;102416.03;6005338;23;46007;-79
2021/12/20 00:14:56;;;;;;;;;19.33;17.33;;;;;10.41;60.65;102435.41;6004950;23;45442;-79
2021/12/20 00:17:21;;;;;;;;;29.67;23.33;;;;;10.03;60.87;102370.22;5980548;23;45498;-79
2021/12/20 00:19:47;;;;;;;;;24.00;21.67;;;;;10.03;60.66;102372.91;6005390;23;45445;-79
2021/12/20 00:22:12;;;;;;;;;24.33;22.33;;;;;10.42;60.68;102440.72;6036631;23;45329;-79
2021/12/20 00:24:37;;;;;;;;;21.33;20.33;;;;;10.43;60.51;102441.59;6094424;23;45303;-79
2021/12/20 00:27:07;;;;;;;;;24.33;21.67;;;;;10.23;60.74;102404.53;6094771;23;45311;-79
2021/12/20 00:29:32;;;;;;;;;30.67;28.00;;;;;10.43;60.45;102431.81;6094432;23;45330;-79
2021/12/20 00:31:58;;;;;;;;;24.67;21.67;;;;;10.44;60.39;102436.25;6094375;23;45997;-79
2021/12/20 00:34:23;;;;;;;;;24.00;22.33;;;;;10.30;60.54;102398.25;6093803;23;45404;-79
2021/12/20 00:36:56;;;;;;;;;24.00;21.33;;;;;10.41;60.71;102430.06;6094757;23;45418;-79
2021/12/20 00:42:06;;;;;;;;;26.00;24.00;;;;;10.45;60.70;102421.13;6093986;23;45327;-79
2021/12/20 00:44:31;;;;;;;;;27.67;25.00;;;;;10.33;60.15;102403.56;6094084;23;45332;-79
2021/12/20 00:46:56;;;;;;;;;24.67;23.00;;;;;10.27;60.37;102390.28;6094873;23;45302;-79
2021/12/20 00:49:22;;;;;;;;;23.00;19.67;;;;;10.38;60.24;102412.34;6093889;23;45367;-79
2021/12/20 00:51:47;;;;;;;;;24.33;19.00;;;;;10.43;60.49;102415.81;6068126;23;48004;-79
2021/12/20 00:54:12;;;;;;;;;23.33;21.67;;;;;10.30;60.41;102398.25;6093657;23;45369;-79
2021/12/20 00:56:38;;;;;;;;;20.67;19.33;;;;;10.32;60.61;102407.09;6094122;23;45781;-79
2021/12/20 00:59:03;;;;;;;;;29.00;20.67;;;;;10.41;60.49;102420.28;6068529;23;45483;-79
2021/12/20 01:01:28;;;;;;;;;17.33;15.67;;;;;10.41;60.54;102414.06;6067777;23;46222;-79
2021/12/20 01:03:54;;;;;;;;;24.00;21.00;;;;;10.41;60.22;102414.94;6092783;23;45311;-79
2021/12/20 01:06:19;;;;;;;;;24.00;19.33;;;;;10.27;60.37;102387.63;6094158;23;45320;-79
2021/12/20 01:08:46;;;;;;;;;22.67;21.00;;;;;10.31;59.65;102398.22;6094878;23;45378;-79
2021/12/20 01:11:13;;;;;;;;;25.67;23.33;;;;;10.35;60.55;102399.94;6093867;23;45288;-79
2021/12/20 01:13:40;;;;;;;;;26.33;22.00;;;;;10.41;60.50;102404.28;6093369;23;45399;-79
2021/12/20 01:16:07;;;;;;;;;22.33;20.33;;;;;10.37;60.38;102391.91;6093878;23;45356;-79
2021/12/20 01:18:32;;;;;;;;;23.00;20.33;;;;;10.34;60.82;102389.31;6094191;23;45465;-79
2021/12/20 01:20:58;;;;;;;;;24.33;18.00;;;;;10.41;60.62;102398.09;6094313;23;45381;-79
2021/12/20 01:23:23;;;;;;;;;27.33;21.33;;;;;10.25;60.46;102370.75;6066956;23;45442;-79
2021/12/20 01:25:49;;;;;;;;;26.67;25.67;;;;;10.21;60.48;102367.28;6094317;23;45367;-79
2021/12/20 01:28:15;;;;;;;;;20.67;17.67;;;;;10.15;60.49;102357.59;6094605;23;45437;-79
2021/12/20 01:30:41;;;;;;;;;20.33;19.00;;;;;10.43;60.41;102398.94;6093312;23;45343;-79
2021/12/20 01:33:09;;;;;;;;;27.00;21.00;;;;;10.32;60.59;102373.38;6094393;23;45263;-79
2021/12/20 01:35:35;;;;;;;;;20.00;18.33;;;;;10.18;60.33;102348.66;6068546;23;45316;-79
2021/12/20 01:38:01;;;;;;;;;19.33;16.00;;;;;10.29;60.39;102365.41;6095977;23;45314;-79
2021/12/20 01:40:26;;;;;;;;;20.00;18.00;;;;;10.44;60.48;102388.28;6094869;23;45823;-79
2021/12/20 01:42:56;;;;;;;;;22.00;16.67;;;;;10.44;60.43;102387.38;6095442;23;45256;-79
2021/12/20 01:45:23;;;;;;;;;21.00;17.67;;;;;10.44;60.29;102398.94;6094170;23;45279;-79
2021/12/20 01:47:53;;;;;;;;;21.33;19.67;;;;;10.45;60.41;102383.81;6095429;23;45161;-79
2021/12/20 01:50:35;;;;;;;;;27.67;23.67;;;;;10.45;60.24;102397.13;6068975;23;46535;-79
2021/12/20 01:53:00;;;;;;;;;17.33;17.33;;;;;10.44;60.30;102395.34;6094909;23;45286;-79
2021/12/20 01:55:25;;;;;;;;;22.33;18.00;;;;;10.43;60.29;102382.94;6095110;23;45607;-79
2021/12/20 01:57:51;;;;;;;;;22.33;20.33;;;;;10.31;60.40;102365.38;6095531;23;45400;-79
2021/12/20 02:00:24;;;;;;;;;18.33;18.00;;;;;10.32;60.55;102364.47;6094152;23;48261;-79
2021/12/20 02:02:57;;;;;;;;;20.67;20.67;;;;;10.31;60.26;102371.59;6093268;23;45324;-79
2021/12/20 02:05:29;;;;;;;;;22.00;21.33;;;;;10.12;60.71;102346.13;6068834;23;45381;-79
2021/12/20 02:08:02;;;;;;;;;24.33;21.67;;;;;10.43;60.82;102382.94;6095019;23;45327;-79
2021/12/20 02:10:28;;;;;;;;;22.00;19.00;;;;;10.41;60.47;102385.63;6095340;23;45903;-79
2021/12/20 02:12:54;;;;;;;;;21.67;18.33;;;;;10.42;60.47;102381.16;6094945;23;45363;-79
2021/12/20 02:15:19;;;;;;;;;20.67;17.67;;;;;10.39;60.63;102376.78;6094804;23;45257;-79
2021/12/20 02:17:45;;;;;;;;;23.67;21.00;;;;;10.29;60.16;102346.75;6095513;23;45597;-79
2021/12/20 02:20:24;;;;;;;;;24.00;19.00;;;;;10.46;60.26;102369.56;6095015;23;45378;-79
2021/12/20 02:22:49;;;;;;;;;24.00;20.00;;;;;10.45;60.13;102373.16;6068220;23;45828;-79
2021/12/20 02:25:14;;;;;;;;;22.67;22.33;;;;;10.35;60.43;102365.31;6094643;23;45387;-79
2021/12/20 02:27:40;;;;;;;;;20.67;20.67;;;;;10.35;60.57;102367.09;6094741;23;45518;-79
2021/12/20 02:30:24;;;;;;;;;23.00;19.00;;;;;10.38;60.31;102364.38;6094067;23;46067;-79
2021/12/20 02:38:29;;;;;;;;;29.00;21.67;;;;;10.15;59.79;102330.06;6095712;23;45322;-79
2021/12/20 02:41:05;;;;;;;;;23.67;21.67;;;;;10.41;60.17;102371.44;6094515;23;46052;-79
2021/12/20 02:43:35;;;;;;;;;25.00;22.67;;;;;10.42;59.78;102367.84;6094355;23;45251;-79
2021/12/20 02:46:03;;;;;;;;;27.67;25.00;;;;;10.42;59.86;102373.19;6094445;23;45357;-79
2021/12/20 02:48:28;;;;;;;;;28.67;23.33;;;;;10.39;59.80;102362.56;6095356;23;45336;-79
2021/12/20 02:50:55;;;;;;;;;31.33;28.33;;;;;10.25;59.90;102342.31;6094360;23;45259;-79
2021/12/20 02:53:21;;;;;;;;;26.67;26.67;;;;;10.30;59.47;102336.94;6068734;23;45598;-79
2021/12/20 02:55:46;;;;;;;;;31.67;28.67;;;;;10.43;59.56;102362.50;6095009;23;45299;-79
2021/12/20 02:58:12;;;;;;;;;29.00;26.33;;;;;10.37;59.91;102359.06;6094953;23;45398;-79
2021/12/20 03:00:37;;;;;;;;;31.67;26.33;;;;;10.20;59.47;102330.88;6095235;23;45969;-79
2021/12/20 03:03:02;;;;;;;;;34.33;28.00;;;;;10.38;59.50;102369.69;6093102;23;45373;-79
2021/12/20 03:05:28;;;;;;;;;31.67;25.00;;;;;10.36;59.50;102352.84;6095018;23;45385;-79
2021/12/20 03:07:54;;;;;;;;;32.67;30.00;;;;;10.39;59.31;102363.44;6068715;23;45497;-79
2021/12/20 03:10:21;;;;;;;;;31.33;30.00;;;;;10.42;59.21;102357.19;6095148;23;46250;-78
2021/12/20 03:12:49;;;;;;;;;28.67;27.67;;;;;10.17;59.66;102311.41;6094007;23;45356;-79
2021/12/20 03:15:19;;;;;;;;;32.00;28.67;;;;;10.40;59.54;102351.03;6094004;23;45390;-79
2021/12/20 03:17:45;;;;;;;;;35.00;31.00;;;;;10.24;59.68;102323.72;6095202;23;45379;-79
2021/12/20 03:20:11;;;;;;;;;32.67;31.00;;;;;10.39;59.48;102341.25;6093524;23;45375;-79
2021/12/20 03:22:36;;;;;;;;;33.67;28.00;;;;;10.33;59.65;102326.25;6094716;23;45318;-79
2021/12/20 03:25:02;;;;;;;;;36.67;31.00;;;;;10.31;59.87;102328.06;6094276;23;45464;-79
2021/12/20 03:27:28;;;;;;;;;33.33;31.33;;;;;10.31;59.73;102331.59;6095141;23;45497;-79
2021/12/20 03:29:53;;;;;;;;;37.33;33.33;;;;;10.25;59.80;102314.81;6094450;23;45327;-79
2021/12/20 03:32:18;;;;;;;;;35.67;30.33;;;;;10.31;59.22;102326.28;6094080;23;45586;-79
2021/12/20 03:34:44;;;;;;;;;32.67;27.67;;;;;10.26;59.36;102332.56;6094499;23;45121;-79
2021/12/20 03:37:09;;;;;;;;;34.00;30.00;;;;;9.94;59.32;102270.91;6094398;23;45281;-79
2021/12/20 03:39:35;;;;;;;;;36.33;32.00;;;;;10.30;59.51;102328.97;6094585;23;45765;-79
2021/12/20 03:42:00;;;;;;;;;36.67;29.33;;;;;10.22;59.29;102315.75;6093936;23;45181;-79
2021/12/20 03:44:26;;;;;;;;;39.00;31.67;;;;;10.29;59.15;102324.53;6094922;23;45637;-79
2021/12/20 03:46:52;;;;;;;;;34.33;30.33;;;;;10.29;59.11;102327.22;6094549;23;45250;-79
2021/12/20 03:49:17;;;;;;;;;31.67;28.00;;;;;10.28;59.34;102321.00;6093848;23;46146;-79
2021/12/20 03:51:42;;;;;;;;;28.67;27.33;;;;;10.19;59.08;102310.47;6094953;23;45439;-79
2021/12/20 03:54:08;;;;;;;;;42.00;33.00;;;;;10.29;59.42;102321.88;6094045;23;45395;-79
2021/12/20 03:56:33;;;;;;;;;27.67;27.67;;;;;10.21;59.11;102315.75;6094421;23;45359;-79
2021/12/20 03:58:59;;;;;;;;;32.33;26.67;;;;;9.97;59.43;102272.63;6094527;23;45426;-79
2021/12/20 04:01:25;;;;;;;;;35.00;31.00;;;;;10.15;59.14;102296.31;6093958;23;45453;-79
2021/12/20 04:03:51;;;;;;;;;36.33;31.00;;;;;10.20;59.17;102303.34;6093842;23;46159;-79
2021/12/20 04:06:16;;;;;;;;;30.00;27.67;;;;;10.27;59.26;102321.00;6094109;23;45484;-79
2021/12/20 04:08:42;;;;;;;;;31.67;28.00;;;;;10.29;59.33;102333.41;6067250;23;47319;-79
2021/12/20 04:11:08;;;;;;;;;35.67;29.33;;;;;10.31;59.29;102328.94;6067426;23;46171;-79
2021/12/20 04:13:34;;;;;;;;;33.00;30.33;;;;;10.12;59.30;102292.84;6094991;23;45344;-79
2021/12/20 04:16:00;;;;;;;;;27.67;24.67;;;;;10.20;58.88;102306.00;6095041;23;45429;-79
2021/12/20 04:18:25;;;;;;;;;28.67;26.67;;;;;10.30;59.06;102329.88;6068141;23;47319;-79
2021/12/20 04:20:52;;;;;;;;;35.00;30.33;;;;;10.09;59.20;102291.09;6094867;23;45400;-79
2021/12/20 04:23:17;;;;;;;;;23.67;22.67;;;;;10.13;58.92;102297.25;6094203;23;45253;-79
2021/12/20 04:25:43;;;;;;;;;33.33;29.33;;;;;10.27;58.91;102321.00;6094601;23;45425;-79
2021/12/20 04:28:08;;;;;;;;;22.00;21.00;;;;;10.15;59.10;102311.41;6094125;23;45506;-79
2021/12/20 04:30:34;;;;;;;;;34.67;29.33;;;;;10.27;59.43;102326.31;6068294;23;45482;-79
2021/12/20 04:32:59;;;;;;;;;34.00;24.67;;;;;10.25;59.13;102326.34;6094747;23;45425;-79
2021/12/20 04:35:25;;;;;;;;;27.00;23.33;;;;;10.22;59.35;102322.88;6094325;23;45459;-79
2021/12/20 04:37:52;;;;;;;;;30.67;25.00;;;;;10.18;59.28;102321.16;6094481;23;46170;-79
2021/12/20 04:40:20;;;;;;;;;27.33;23.67;;;;;10.23;59.40;102321.94;6093190;23;45426;-79
2021/12/20 04:42:56;;;;;;;;;34.33;26.00;;;;;10.26;59.06;102325.44;6094228;23;45383;-79
2021/12/20 04:45:22;;;;;;;;;31.00;24.67;;;;;10.27;59.12;102331.66;6094423;23;45336;-79
2021/12/20 04:47:47;;;;;;;;;26.33;25.33;;;;;10.27;59.29;102331.66;6094297;23;46465;-79
2021/12/20 04:50:13;;;;;;;;;25.33;22.67;;;;;10.20;59.34;102322.00;6067660;23;45460;-79
2021/12/20 04:52:41;;;;;;;;;29.00;26.00;;;;;10.07;58.93;102300.03;6094733;23;45394;-79
2021/12/20 04:55:08;;;;;;;;;30.67;26.00;;;;;10.07;59.26;102294.69;6093750;23;45494;-79
2021/12/20 04:57:33;;;;;;;;;26.67;21.00;;;;;10.04;59.22;102294.72;6094262;23;45489;-79
2021/12/20 04:59:58;;;;;;;;;25.33;23.33;;;;;10.00;59.32;102301.91;6094469;23;45316;-79
2021/12/20 05:02:24;;;;;;;;;23.67;22.33;;;;;10.08;59.47;102313.31;6092934;23;45611;-79
2021/12/20 05:04:50;;;;;;;;;33.33;28.67;;;;;10.15;59.20;102328.28;6094832;23;45239;-79
2021/12/20 05:07:16;;;;;;;;;25.67;24.00;;;;;10.03;59.66;102309.84;6093257;23;46279;-79
2021/12/20 05:09:42;;;;;;;;;27.67;23.67;;;;;10.02;59.26;102305.44;6093565;23;45381;-79
2021/12/20 05:12:12;;;;;;;;;26.33;23.67;;;;;10.19;59.29;102339.78;6094413;23;45639;-79
2021/12/20 05:14:44;;;;;;;;;26.67;21.67;;;;;10.14;59.17;102342.53;6094477;23;45336;-79
2021/12/20 05:17:13;;;;;;;;;24.00;21.33;;;;;10.13;58.50;102332.75;6093598;23;45302;-79
2021/12/20 05:19:39;;;;;;;;;24.67;17.67;;;;;10.05;58.89;102325.81;6094179;23;45287;-79
2021/12/20 05:22:05;;;;;;;;;23.00;19.00;;;;;10.14;58.65;102341.66;6094070;23;45375;-79
2021/12/20 05:24:30;;;;;;;;;20.33;17.67;;;;;10.00;58.52;102317.88;6094238;23;45477;-79
2021/12/20 05:26:55;;;;;;;;;27.67;20.67;;;;;10.10;58.81;102334.59;6094401;23;46804;-79
2021/12/20 05:29:22;;;;;;;;;14.67;12.33;;;;;9.79;58.94;102289.81;6067716;23;45892;-79
2021/12/20 05:31:48;;;;;;;;;22.00;20.67;;;;;10.05;58.99;102328.47;6067923;23;45375;-79
2021/12/20 05:34:13;;;;;;;;;23.67;18.33;;;;;10.02;58.84;102318.75;6094292;23;45477;-79
2021/12/20 05:36:38;;;;;;;;;21.00;19.00;;;;;10.03;59.08;102327.63;6093021;23;51363;-79
2021/12/20 05:39:04;;;;;;;;;22.00;18.67;;;;;9.88;58.85;102308.31;6093099;23;54337;-79
2021/12/20 05:41:29;;;;;;;;;20.67;18.33;;;;;9.94;58.90;102324.19;6094025;23;45322;-79
2021/12/20 05:43:55;;;;;;;;;22.33;21.00;;;;;9.97;58.92;102323.25;6094484;23;45315;-79
2021/12/20 05:46:20;;;;;;;;;30.00;23.00;;;;;9.96;59.25;102325.94;6093615;23;46163;-79
2021/12/20 05:48:45;;;;;;;;;27.00;20.67;;;;;9.99;59.26;102332.09;6094328;23;45363;-79
2021/12/20 05:51:11;;;;;;;;;19.33;18.33;;;;;9.91;59.18;102324.22;6067851;23;45293;-79
2021/12/20 05:53:36;;;;;;;;;26.67;21.00;;;;;9.76;59.18;102302.28;6093888;23;45327;-79
2021/12/20 05:56:01;;;;;;;;;23.00;21.00;;;;;9.82;59.19;102310.19;6093762;23;45443;-79
2021/12/20 05:58:27;;;;;;;;;24.00;22.33;;;;;9.88;59.00;102329.63;6093884;23;45362;-79
2021/12/20 06:00:52;;;;;;;;;18.00;17.00;;;;;9.81;58.95;102319.06;6093985;23;45398;-79
2021/12/20 06:03:18;;;;;;;;;21.67;21.00;;;;;9.93;59.03;102340.19;6093198;23;45316;-79
2021/12/20 06:05:43;;;;;;;;;21.67;18.67;;;;;9.74;59.00;102305.00;6093849;23;46003;-79
2021/12/20 06:08:09;;;;;;;;;23.00;21.33;;;;;9.95;58.82;102333.06;6092597;23;45304;-79
2021/12/20 06:10:36;;;;;;;;;24.33;22.33;;;;;9.96;58.70;102325.94;6094100;23;45220;-79
2021/12/20 06:13:03;;;;;;;;;23.67;19.00;;;;;10.00;58.70;102325.00;6094267;23;45282;-79
2021/12/20 06:15:28;;;;;;;;;20.33;18.33;;;;;9.88;59.04;102302.06;6093067;23;46127;-79
2021/12/20 06:17:54;;;;;;;;;25.00;20.67;;;;;9.91;58.69;102316.25;6067298;23;45904;-79
2021/12/20 06:20:19;;;;;;;;;26.00;23.00;;;;;10.01;58.97;102329.41;6094076;23;45411;-79
2021/12/20 06:22:45;;;;;;;;;24.00;20.67;;;;;10.02;58.69;102333.81;6094871;23;45382;-79
2021/12/20 06:25:11;;;;;;;;;23.00;23.00;;;;;10.01;58.64;102332.09;6094827;23;45341;-79
2021/12/20 06:27:37;;;;;;;;;22.33;18.33;;;;;9.83;58.53;102296.84;6094607;23;45309;-79
2021/12/20 06:30:04;;;;;;;;;28.00;23.33;;;;;10.04;58.67;102330.22;6094752;23;45303;-79
2021/12/20 06:32:29;;;;;;;;;28.33;23.67;;;;;9.76;58.39;102294.28;6095927;23;45259;-79
2021/12/20 06:34:55;;;;;;;;;24.33;21.67;;;;;10.07;58.75;102342.66;6094886;23;46438;-79
2021/12/20 06:37:21;;;;;;;;;27.00;21.00;;;;;9.93;58.83;102322.44;6094159;23;45522;-79
2021/12/20 06:39:47;;;;;;;;;32.67;29.00;;;;;10.01;58.84;102334.75;6094584;23;45311;-79
2021/12/20 06:42:12;;;;;;;;;29.00;27.67;;;;;10.05;58.94;102341.78;6095626;23;45422;-78
2021/12/20 06:44:37;;;;;;;;;23.67;22.00;;;;;9.90;58.58;102308.25;6095005;23;45957;-79
2021/12/20 06:47:03;;;;;;;;;29.00;22.33;;;;;9.96;58.44;102307.31;6094817;23;45601;-79
2021/12/20 06:49:28;;;;;;;;;31.00;23.67;;;;;10.02;58.48;102329.41;6094841;23;45351;-79
2021/12/20 06:51:58;;;;;;;;;26.33;23.00;;;;;10.17;58.57;102359.38;6094997;23;45619;-79
2021/12/20 06:54:24;;;;;;;;;28.33;24.00;;;;;10.01;58.50;102330.28;6094372;23;45434;-79
2021/12/20 06:56:49;;;;;;;;;27.00;21.33;;;;;10.08;58.57;102331.94;6094113;23;48413;-79
2021/12/20 06:59:15;;;;;;;;;29.00;25.00;;;;;10.21;58.36;102355.72;6094706;23;45765;-79
2021/12/20 07:01:41;;;;;;;;;28.33;24.33;;;;;10.11;58.50;102342.59;6094616;23;45537;-79
2021/12/20 07:04:06;;;;;;;;;26.33;21.33;;;;;10.23;58.44;102351.25;6094413;23;46067;-79
2021/12/20 07:06:32;;;;;;;;;21.00;19.00;;;;;10.24;58.43;102353.91;6094698;23;45704;-79
2021/12/20 07:08:57;;;;;;;;;33.67;25.67;;;;;10.08;58.42;102323.09;6094996;23;45268;-79
2021/12/20 07:11:23;;;;;;;;;33.00;18.67;;;;;10.26;58.36;102356.56;6094855;23;45431;-79
2021/12/20 07:13:49;;;;;;;;;25.33;20.67;;;;;10.26;58.60;102357.44;6094722;23;46095;-79
2021/12/20 07:16:15;;;;;;;;;27.67;23.67;;;;;10.28;58.51;102362.75;6094400;23;45306;-79
2021/12/20 07:18:41;;;;;;;;;34.33;29.67;;;;;10.29;58.18;102364.53;6094730;23;45340;-79
2021/12/20 07:21:07;;;;;;;;;26.67;23.00;;;;;10.30;58.16;102363.59;6094809;23;45343;-79
2021/12/20 07:23:34;;;;;;;;;21.67;21.00;;;;;10.31;57.95;102358.25;6095055;23;46125;-79
2021/12/20 07:26:00;;;;;;;;;23.33;18.67;;;;;10.15;57.80;102330.06;6093922;23;45259;-79
2021/12/20 07:28:25;;;;;;;;;16.33;16.00;;;;;10.26;57.95;102352.09;6094931;23;45361;-79
2021/12/20 07:30:51;;;;;;;;;15.67;15.00;;;;;10.23;57.90;102356.59;6094533;23;45403;-79
2021/12/20 07:33:16;;;;;;;;;19.00;16.00;;;;;10.28;57.75;102368.06;6094068;23;45967;-79
2021/12/20 07:35:43;;;;;;;;;18.33;14.33;;;;;10.23;57.49;102361.91;6094874;23;45288;-79
2021/12/20 07:38:14;;;;;;;;;14.00;12.00;;;;;10.14;57.40;102355.84;6094542;23;45806;-79
2021/12/20 07:40:47;;;;;;;;;15.67;12.00;;;;;10.07;57.28;102337.31;6095285;23;45362;-79
2021/12/20 07:43:14;;;;;;;;;12.00;12.00;;;;;10.26;56.72;102367.22;6094229;23;46413;-79
2021/12/20 07:45:41;;;;;;;;;9.33;9.33;;;;;10.08;56.67;102344.41;6094288;23;45357;-79
2021/12/20 07:48:06;;;;;;;;;10.33;10.33;;;;;10.25;56.29;102365.44;6094334;23;45534;-79
2021/12/20 07:50:32;;;;;;;;;12.33;12.33;;;;;10.11;56.79;102350.56;6095584;23;45371;-79
2021/12/20 07:52:58;;;;;;;;;12.00;9.00;;;;;10.10;56.68;102353.25;6094815;23;45329;-79
2021/12/20 07:55:23;;;;;;;;;9.33;8.00;;;;;10.10;56.59;102351.47;6094199;23;45385;-79
2021/12/20 07:57:50;;;;;;;;;9.67;9.00;;;;;10.03;56.57;102338.28;6094964;23;45811;-79
2021/12/20 08:00:16;;;;;;;;;9.67;7.67;;;;;10.24;56.23;102369.91;6094897;23;45307;-79
2021/12/20 08:02:41;;;;;;;;;13.00;11.00;;;;;10.02;56.26;102336.50;6093569;23;45316;-79
2021/12/20 08:05:08;;;;;;;;;11.00;11.00;;;;;10.05;56.20;102337.34;6093797;23;45331;-79
2021/12/20 08:07:33;;;;;;;;;13.33;13.00;;;;;10.21;56.11;102369.94;6094662;23;45340;-81
2021/12/20 08:10:09;;;;;;;;;10.33;9.00;;;;;10.25;56.18;102376.97;6095385;23;45550;-80
2021/12/20 08:12:35;;;;;;;;;12.33;11.33;;;;;9.85;56.22;102299.47;6095079;23;45476;-80
2021/12/20 08:15:00;;;;;;;;;14.33;11.33;;;;;9.97;56.41;102344.56;6094291;23;45331;-79
2021/12/20 08:17:26;;;;;;;;;17.67;14.33;;;;;10.10;56.07;102356.78;6094379;23;45267;-80
2021/12/20 08:19:51;;;;;;;;;15.00;11.67;;;;;9.88;56.51;102326.94;6095561;23;45286;-80
2021/12/20 08:22:17;;;;;;;;;18.33;15.33;;;;;10.07;56.50;102359.50;6094443;23;46383;-81
2021/12/20 08:24:42;;;;;;;;;16.00;16.00;;;;;9.99;56.38;102349.88;6095006;23;52387;-81
2021/12/20 08:27:07;;;;;;;;;16.00;13.67;;;;;10.23;56.46;102386.81;6094534;23;45357;-81
2021/12/20 08:29:33;;;;;;;;;11.67;8.33;;;;;10.14;56.46;102370.97;6095390;23;45304;-81
2021/12/20 08:32:02;;;;;;;;;15.00;14.00;;;;;10.15;56.62;102367.38;6067943;23;47350;-80
2021/12/20 08:34:31;;;;;;;;;18.00;15.00;;;;;10.03;56.52;102351.59;6096615;23;45510;-81
2021/12/20 08:36:57;;;;;;;;;21.33;18.33;;;;;10.25;56.46;102389.41;6094710;23;45284;-81
2021/12/20 08:39:22;;;;;;;;;21.67;17.67;;;;;10.10;55.94;102369.22;6093972;23;45310;-81
2021/12/20 08:41:47;;;;;;;;;12.67;12.33;;;;;9.98;56.07;102359.66;6093422;23;47257;-79
2021/12/20 08:44:13;;;;;;;;;18.33;16.00;;;;;10.08;56.22;102373.69;6093063;23;45300;-80
2021/12/20 08:46:39;;;;;;;;;16.00;14.33;;;;;10.21;55.98;102398.34;6067726;23;45340;-79
2021/12/20 08:49:05;;;;;;;;;16.67;16.67;;;;;10.06;55.88;102371.06;6094385;23;45454;-79
2021/12/20 08:51:30;;;;;;;;;19.00;16.67;;;;;10.03;56.21;102352.47;6094077;23;45373;-79
2021/12/20 08:53:56;;;;;;;;;24.67;17.67;;;;;10.24;56.03;102388.53;6094028;23;45245;-79
2021/12/20 08:56:22;;;;;;;;;26.33;19.67;;;;;10.11;55.98;102370.97;6092830;23;45485;-80
2021/12/20 08:58:48;;;;;;;;;18.33;15.67;;;;;10.23;55.74;102393.88;6094949;23;45351;-80
2021/12/20 09:01:14;;;;;;;;;25.00;23.33;;;;;10.23;56.37;102396.56;6093297;23;46086;-80
2021/12/20 09:03:39;;;;;;;;;20.67;18.00;;;;;10.19;56.10;102394.88;6094035;23;45424;-80
2021/12/20 09:06:05;;;;;;;;;19.33;16.33;;;;;10.12;56.00;102372.75;6093993;23;45330;-80
2021/12/20 09:08:31;;;;;;;;;22.67;20.33;;;;;10.21;56.17;102382.38;6094171;23;45628;-80
2021/12/20 09:10:57;;;;;;;;;19.33;18.67;;;;;10.07;55.91;102359.50;6094050;23;45739;-80
2021/12/20 09:13:22;;;;;;;;;16.67;15.67;;;;;10.29;55.70;102402.72;6093346;23;45386;-79
2021/12/20 09:15:48;;;;;;;;;19.33;17.67;;;;;10.30;55.70;102403.56;6094027;23;45261;-79
2021/12/20 09:18:16;;;;;;;;;20.33;16.67;;;;;10.14;55.48;102384.28;6094014;23;45688;-80
2021/12/20 09:20:41;;;;;;;;;20.00;17.00;;;;;10.18;56.02;102385.09;6093648;23;46432;-80
2021/12/20 09:23:10;;;;;;;;;23.67;22.33;;;;;10.26;55.94;102400.06;6089641;23;45350;-80
2021/12/20 09:25:40;;;;;;;;;22.00;19.00;;;;;10.28;56.05;102397.38;6091826;23;45271;-79
2021/12/20 09:28:09;;;;;;;;;21.00;18.33;;;;;10.25;55.89;102406.28;6065017;23;45781;-79
2021/12/20 09:30:35;;;;;;;;;15.67;15.67;;;;;10.25;55.83;102406.28;6090933;23;46089;-79
2021/12/20 09:33:01;;;;;;;;;24.67;20.67;;;;;10.30;55.65;102406.25;6090633;23;45384;-80
2021/12/20 09:35:27;;;;;;;;;19.00;16.00;;;;;10.07;55.64;102367.50;6065904;23;45336;-80
2021/12/20 09:37:53;;;;;;;;;20.33;16.67;;;;;10.31;55.64;102402.69;6092147;23;45754;-80
2021/12/20 09:40:32;;;;;;;;;18.00;16.67;;;;;10.31;55.51;102413.34;6091866;23;45971;-79
2021/12/20 09:43:01;;;;;;;;;18.00;17.00;;;;;10.14;55.35;102398.47;6090990;23;45474;-79
2021/12/20 09:45:28;;;;;;;;;16.33;15.33;;;;;10.09;55.49;102389.69;6091663;23;45373;-79
2021/12/20 09:47:54;;;;;;;;;16.33;16.33;;;;;10.20;55.38;102401.94;6065872;23;45607;-79
2021/12/20 09:50:19;;;;;;;;;20.67;16.00;;;;;10.15;55.58;102396.69;6091242;23;45298;-79
2021/12/20 09:52:46;;;;;;;;;16.67;13.00;;;;;10.11;55.20;102387.88;6091261;23;45336;-79
2021/12/20 09:55:16;;;;;;;;;15.00;13.00;;;;;10.22;55.21;102408.13;6092861;23;45369;-79
2021/12/20 09:57:43;;;;;;;;;16.00;12.00;;;;;10.24;55.23;102425.84;6067198;23;45469;-79
2021/12/20 10:00:11;;;;;;;;;15.33;14.33;;;;;10.19;55.15;102408.19;6092581;23;46381;-80
2021/12/20 10:02:37;;;;;;;;;12.00;11.00;;;;;10.23;55.06;102412.53;6092882;23;45715;-79
2021/12/20 10:05:03;;;;;;;;;12.33;12.33;;;;;10.03;55.18;102384.44;6092927;23;45614;-77
2021/12/20 10:07:29;;;;;;;;;17.00;13.33;;;;;10.11;55.26;102397.63;6093607;23;45730;-79
2021/12/20 10:09:54;;;;;;;;;15.00;14.00;;;;;10.06;55.27;102389.69;6093272;23;46014;-80
2021/12/20 10:12:21;;;;;;;;;18.00;15.33;;;;;10.18;54.95;102433.06;6092672;23;45340;-80
2021/12/20 10:14:53;;;;;;;;;16.00;13.67;;;;;10.09;55.10;102420.75;6067528;23;45336;-79
2021/12/20 10:17:18;;;;;;;;;17.33;15.33;;;;;9.71;55.24;102361.78;6094098;23;45322;-83
2021/12/20 10:19:44;;;;;;;;;17.33;14.67;;;;;9.73;55.18;102375.97;6068144;23;46901;-80
2021/12/20 10:22:25;;;;;;;;;16.00;14.00;;;;;9.80;55.72;102398.06;6093864;23;45515;-78
2021/12/20 10:24:51;;;;;;;;;24.00;16.33;;;;;9.97;55.38;102418.25;6090589;23;45435;-78
2021/12/20 10:27:36;;;;;;;;;15.67;13.67;;;;;9.95;55.70;102410.31;6091421;23;45719;-78
2021/12/20 10:30:26;;;;;;;;;15.00;12.67;;;;;9.93;55.37;102417.44;6092915;23;45412;-79
2021/12/20 10:32:52;;;;;;;;;19.33;17.67;;;;;9.94;55.60;102420.06;6093215;23;45334;-79
2021/12/20 10:35:27;;;;;;;;;21.33;17.67;;;;;9.97;55.66;102412.94;6067326;23;45352;-86
2021/12/20 10:37:54;;;;;;;;;14.00;14.00;;;;;9.97;55.69;102416.47;6094750;23;45405;-81
2021/12/20 10:40:20;;;;;;;;;18.67;17.00;;;;;9.99;55.79;102412.00;6093513;23;45518;-81
2021/12/20 10:42:45;;;;;;;;;23.33;17.67;;;;;9.78;55.73;102365.25;6093433;23;45398;-82
2021/12/20 10:45:13;;;;;;;;;14.33;12.33;;;;;10.05;55.16;102408.38;6094594;23;45428;-82
2021/12/20 10:47:41;;;;;;;;;32.00;27.00;;;;;10.05;55.23;102403.94;6068374;23;45656;-81
2021/12/20 10:50:25;;;;;;;;;21.33;19.00;;;;;10.05;55.15;102405.72;6093741;23;45903;-81
2021/12/20 10:52:53;;;;;;;;;9.33;6.67;;;;;9.90;54.72;102375.75;6093965;23;45446;-79
2021/12/20 10:55:39;;;;;;;;;8.00;6.00;;;;;10.07;54.51;102409.25;6094092;23;45332;-82
2021/12/20 10:58:34;;;;;;;;;9.67;7.00;;;;;10.08;54.79;102400.34;6093939;23;45421;-81
2021/12/20 11:03:45;;;;;;;;;12.33;10.33;;;;;9.77;54.02;102370.63;6093751;23;45280;-81
2021/12/20 11:11:25;;;;;;;;;6.00;4.33;;;;;9.96;53.78;102396.06;6093818;23;45759;-79
2021/12/20 11:13:51;;;;;;;;;9.33;8.00;;;;;9.84;53.65;102373.16;6093632;23;45608;-79
2021/12/20 11:16:46;;;;;;;;;11.67;11.00;;;;;9.92;53.69;102384.56;6093508;23;45315;-79
2021/12/20 11:19:25;;;;;;;;;15.00;12.00;;;;;9.98;53.88;102391.63;6092285;23;45487;-79
2021/12/20 11:22:05;;;;;;;;;11.00;9.33;;;;;10.00;53.67;102380.94;6092641;23;46084;-79
2021/12/20 11:24:35;;;;;;;;;15.00;12.67;;;;;9.79;53.51;102350.19;6093910;23;45284;-79
2021/12/20 11:27:03;;;;;;;;;12.33;11.67;;;;;9.97;53.29;102380.97;6093325;23;45364;-78